createdAt,value
2022-09-06T00:00:11.808Z,2.57
2022-09-06T00:02:40.261Z,2.40
2022-09-06T00:05:12.274Z,2.30
2022-09-06T00:07:41.112Z,4.10
2022-09-06T00:10:10.866Z,4.10
2022-09-06T00:12:40.117Z,3.10
2022-09-06T00:15:09.581Z,2.87
2022-09-06T00:17:38.002Z,2.50
2022-09-06T00:20:11.454Z,2.60
2022-09-06T00:22:42.700Z,2.30
2022-09-06T00:25:12.120Z,2.03
2022-09-06T00:27:41.628Z,2.10
2022-09-06T00:30:12.689Z,2.73
2022-09-06T00:32:41.275Z,2.17
2022-09-06T00:35:09.751Z,2.30
2022-09-06T00:37:38.346Z,2.70
2022-09-06T00:40:09.897Z,2.83
2022-09-06T00:42:38.405Z,3.10
2022-09-06T00:45:08.535Z,3.10
2022-09-06T00:47:39.559Z,2.50
2022-09-06T00:50:09.124Z,3.10
2022-09-06T00:52:39.911Z,2.77
2022-09-06T00:55:10.765Z,2.20
2022-09-06T00:57:40.079Z,2.50
2022-09-06T01:00:10.199Z,2.23
2022-09-06T01:02:38.738Z,2.77
2022-09-06T01:05:08.337Z,3.07
2022-09-06T01:07:59.985Z,2.67
2022-09-06T01:10:44.649Z,2.27
2022-09-06T01:13:26.056Z,2.87
2022-09-06T01:16:00.235Z,2.90
2022-09-06T01:18:40.365Z,2.57
2022-09-06T01:21:22.503Z,2.70
2022-09-06T01:24:15.627Z,2.30
2022-09-06T01:27:29.362Z,2.53
2022-09-06T01:30:03.329Z,2.40
2022-09-06T01:32:38.765Z,2.53
2022-09-06T01:35:18.822Z,2.57
2022-09-06T01:37:48.296Z,2.20
2022-09-06T01:40:16.707Z,2.63
2022-09-06T01:42:48.833Z,2.60
2022-09-06T01:45:20.825Z,2.47
2022-09-06T01:48:00.282Z,2.50
2022-09-06T01:50:49.170Z,2.70
2022-09-06T01:53:37.361Z,3.00
2022-09-06T01:56:09.998Z,2.50
2022-09-06T01:58:55.356Z,2.60
2022-09-06T02:01:29.755Z,2.57
2022-09-06T02:04:03.113Z,2.53
2022-09-06T02:06:38.599Z,2.67
2022-09-06T02:09:10.623Z,2.87
2022-09-06T02:11:43.787Z,2.73
2022-09-06T02:14:17.193Z,2.50
2022-09-06T02:16:49.374Z,2.53
2022-09-06T02:19:23.232Z,2.60
2022-09-06T02:21:54.362Z,2.40
2022-09-06T02:24:26.858Z,2.47
2022-09-06T02:26:55.518Z,2.40
2022-09-06T02:29:25.582Z,2.47
2022-09-06T02:31:57.673Z,2.30
2022-09-06T02:34:26.099Z,3.73
2022-09-06T02:36:55.436Z,2.63
2022-09-06T02:39:25.180Z,3.00
2022-09-06T02:41:53.800Z,2.90
2022-09-06T02:44:22.065Z,2.47
2022-09-06T02:46:56.831Z,2.60
2022-09-06T02:49:25.669Z,2.90
2022-09-06T02:51:54.182Z,2.57
2022-09-06T02:54:22.598Z,2.57
2022-09-06T02:56:52.467Z,2.67
2022-09-06T02:59:21.186Z,2.37
2022-09-06T03:01:52.178Z,2.40
2022-09-06T03:04:21.672Z,2.50
2022-09-06T03:06:50.092Z,3.07
2022-09-06T03:09:19.642Z,2.63
2022-09-06T03:11:49.493Z,3.00
2022-09-06T03:14:19.571Z,2.77
2022-09-06T03:16:49.095Z,2.70
2022-09-06T03:19:20.506Z,2.70
2022-09-06T03:21:49.880Z,2.73
2022-09-06T03:24:19.575Z,2.30
2022-09-06T03:26:48.737Z,2.90
2022-09-06T03:29:17.682Z,2.83
2022-09-06T03:31:48.977Z,2.67
2022-09-06T03:34:19.773Z,2.67
2022-09-06T03:39:53.515Z,2.80
2022-09-06T03:42:30.140Z,2.90
2022-09-06T03:44:59.508Z,2.63
2022-09-06T03:47:29.053Z,2.70
2022-09-06T03:53:28.686Z,3.10
2022-09-06T03:55:59.051Z,2.90
2022-09-06T03:58:31.015Z,2.87
2022-09-06T04:01:09.430Z,3.00
2022-09-06T04:03:40.332Z,3.07
2022-09-06T04:06:11.746Z,3.10
2022-09-06T04:08:43.936Z,3.10
2022-09-06T04:11:14.014Z,3.00
2022-09-06T04:13:42.321Z,2.90
2022-09-06T04:16:12.141Z,3.10
2022-09-06T04:18:50.693Z,2.80
2022-09-06T04:21:27.812Z,3.03
2022-09-06T04:23:57.406Z,3.10
2022-09-06T04:26:26.181Z,3.20
2022-09-06T04:28:54.487Z,3.70
2022-09-06T04:31:24.632Z,3.63
2022-09-06T04:33:54.627Z,2.90
2022-09-06T04:40:25.902Z,3.30
2022-09-06T04:43:01.208Z,3.10
2022-09-06T04:45:31.069Z,3.77
2022-09-06T04:48:17.280Z,3.43
2022-09-06T04:50:47.181Z,3.40
2022-09-06T04:53:19.609Z,3.03
2022-09-06T04:56:10.356Z,3.43
2022-09-06T04:58:40.623Z,3.40
2022-09-06T05:01:08.996Z,4.03
2022-09-06T05:03:37.421Z,3.37
2022-09-06T05:06:08.767Z,3.33
2022-09-06T05:08:39.782Z,3.30
2022-09-06T05:11:13.100Z,3.23
2022-09-06T05:14:45.438Z,4.03
2022-09-06T05:17:42.970Z,3.67
2022-09-06T05:20:44.311Z,3.80
2022-09-06T05:23:29.303Z,3.43
2022-09-06T05:26:08.833Z,3.57
2022-09-06T05:32:24.335Z,3.70
2022-09-06T05:46:59.520Z,3.63
2022-09-06T05:52:54.424Z,4.00
2022-09-06T05:55:34.524Z,4.10
2022-09-06T05:58:15.824Z,3.77
2022-09-06T06:00:55.817Z,4.10
2022-09-06T06:06:17.409Z,3.80
2022-09-06T06:12:45.637Z,3.80
2022-09-06T06:15:29.111Z,3.77
2022-09-06T06:26:40.779Z,3.50
2022-09-06T06:29:10.972Z,4.00
2022-09-06T06:31:44.768Z,3.83
2022-09-06T06:38:03.924Z,4.47
2022-09-06T06:41:06.992Z,3.93
2022-09-06T06:44:25.198Z,3.70
2022-09-06T06:46:58.868Z,4.40
2022-09-06T06:49:28.815Z,4.40
2022-09-06T06:52:01.933Z,4.43
2022-09-06T06:54:34.279Z,6.03
2022-09-06T06:57:55.163Z,4.27
2022-09-06T07:00:38.702Z,4.27
2022-09-06T07:03:17.182Z,4.07
2022-09-06T07:06:11.795Z,3.90
2022-09-06T07:08:52.136Z,3.67
2022-09-06T07:11:24.931Z,3.60
2022-09-06T07:14:11.139Z,3.60
2022-09-06T07:17:07.446Z,3.40
2022-09-06T07:20:15.492Z,3.37
2022-09-06T07:28:43.547Z,3.37
2022-09-06T07:33:46.057Z,3.87
2022-09-06T07:38:51.774Z,4.07
2022-09-06T07:41:20.675Z,3.63
2022-09-06T07:43:49.022Z,3.70
2022-09-06T07:46:32.345Z,4.37
2022-09-06T07:49:08.234Z,4.30
2022-09-06T07:51:37.896Z,4.57
2022-09-06T07:54:29.338Z,4.20
2022-09-06T07:56:56.750Z,3.37
2022-09-06T07:59:25.125Z,3.50
2022-09-06T08:01:53.502Z,3.60
2022-09-06T08:04:24.889Z,3.60
2022-09-06T08:09:49.434Z,3.53
2022-09-06T08:18:11.340Z,3.03
2022-09-06T08:21:20.557Z,3.70
2022-09-06T08:24:02.239Z,3.40
2022-09-06T08:26:33.991Z,3.60
2022-09-06T08:29:06.273Z,3.50
2022-09-06T08:34:40.760Z,3.93
2022-09-06T08:37:11.650Z,4.00
2022-09-06T08:39:47.726Z,3.57
2022-09-06T08:42:16.402Z,4.57
2022-09-06T08:47:23.075Z,3.93
2022-09-06T08:50:17.510Z,3.67
2022-09-06T08:53:20.640Z,3.90
2022-09-06T08:56:01.235Z,4.00
2022-09-06T08:58:46.382Z,3.70
2022-09-06T09:01:24.749Z,3.17
2022-09-06T09:04:17.040Z,2.90
2022-09-06T09:06:53.562Z,3.23
2022-09-06T09:10:05.927Z,2.87
2022-09-06T09:12:55.027Z,3.13
2022-09-06T09:15:25.148Z,2.80
2022-09-06T09:17:55.598Z,2.57
2022-09-06T09:20:27.024Z,2.43
2022-09-06T09:23:06.459Z,2.20
2022-09-06T09:29:36.241Z,2.20
2022-09-06T09:36:09.457Z,2.30
2022-09-06T09:39:34.518Z,2.60
2022-09-06T09:42:07.434Z,2.50
2022-09-06T09:44:53.917Z,2.37
2022-09-06T09:47:51.263Z,2.53
2022-09-06T09:50:32.690Z,2.43
2022-09-06T09:53:17.854Z,2.30
2022-09-06T09:56:15.226Z,2.20
2022-09-06T09:58:44.785Z,2.70
2022-09-06T10:01:34.394Z,8.57
2022-09-06T10:07:17.112Z,2.17
2022-09-06T10:13:47.430Z,2.47
2022-09-06T10:16:51.842Z,2.40
2022-09-06T10:19:44.164Z,2.00
2022-09-06T10:22:36.992Z,2.10
2022-09-06T10:25:53.158Z,4.23
2022-09-06T10:32:23.635Z,2.37
2022-09-06T10:35:48.940Z,2.20
2022-09-06T10:39:04.090Z,2.40
2022-09-06T10:41:50.994Z,2.10
2022-09-06T10:44:41.291Z,2.00
2022-09-06T10:47:14.954Z,2.43
2022-09-06T10:49:48.835Z,2.20
2022-09-06T10:55:49.943Z,1.80
2022-09-06T10:58:28.734Z,2.03
2022-09-06T11:01:10.005Z,2.00
2022-09-06T11:06:45.959Z,1.80
2022-09-06T11:09:24.287Z,2.00
2022-09-06T11:12:19.914Z,2.23
2022-09-06T11:15:27.115Z,1.77
2022-09-06T11:18:11.994Z,1.83
2022-09-06T11:21:11.196Z,1.60
2022-09-06T11:24:03.379Z,1.57
2022-09-06T11:27:33.120Z,1.67
2022-09-06T11:30:13.387Z,2.20
2022-09-06T11:32:53.848Z,2.57
2022-09-06T11:35:28.464Z,2.00
2022-09-06T11:41:44.048Z,1.60
2022-09-06T11:48:44.252Z,1.33
2022-09-06T11:51:33.936Z,1.60
2022-09-06T11:54:20.861Z,1.40
2022-09-06T11:56:57.405Z,1.27
2022-09-06T11:59:38.412Z,1.70
2022-09-06T12:02:08.726Z,1.70
2022-09-06T12:05:26.746Z,1.40
2022-09-06T12:08:35.497Z,1.90
2022-09-06T12:15:22.031Z,1.60
2022-09-06T12:18:23.802Z,1.80
2022-09-06T12:21:13.889Z,2.27
2022-09-06T12:23:48.599Z,1.53
2022-09-06T12:26:55.376Z,1.57
2022-09-06T12:36:18.451Z,1.50
2022-09-06T12:48:35.492Z,1.43
2022-09-06T12:54:58.314Z,1.33
2022-09-06T12:57:48.749Z,1.20
2022-09-06T13:00:18.138Z,1.60
2022-09-06T13:06:02.532Z,1.53
2022-09-06T13:09:10.142Z,1.83
2022-09-06T13:13:03.930Z,1.53
2022-09-06T13:22:39.403Z,1.40
2022-09-06T13:25:47.632Z,1.60
2022-09-06T13:28:42.945Z,1.40
2022-09-06T13:31:39.893Z,1.70
2022-09-06T13:34:12.046Z,1.60
2022-09-06T13:37:04.224Z,1.70
2022-09-06T13:39:53.201Z,1.50
2022-09-06T13:43:04.713Z,1.80
2022-09-06T13:45:59.089Z,1.60
2022-09-06T13:48:53.576Z,1.40
2022-09-06T13:51:40.343Z,1.50
2022-09-06T13:54:46.960Z,1.53
2022-09-06T13:57:45.616Z,1.40
2022-09-06T14:00:20.672Z,1.43
2022-09-06T14:03:15.857Z,1.60
2022-09-06T14:05:51.093Z,1.58
2022-09-06T14:09:02.919Z,1.50
2022-09-06T14:11:56.057Z,1.47
2022-09-06T14:14:36.163Z,1.23
2022-09-06T14:17:05.239Z,1.40
2022-09-06T14:20:07.708Z,1.40
2022-09-06T14:26:22.335Z,1.30
2022-09-06T14:28:57.137Z,1.70
2022-09-06T14:31:30.973Z,1.77
2022-09-06T14:37:20.426Z,1.70
2022-09-06T14:43:08.965Z,1.60
2022-09-06T14:45:53.448Z,1.70
2022-09-06T14:49:04.059Z,1.60
2022-09-06T14:51:39.613Z,1.40
2022-09-06T14:54:15.833Z,1.43
2022-09-06T14:56:55.333Z,1.50
2022-09-06T14:59:26.555Z,1.83
2022-09-06T15:02:26.560Z,1.70
2022-09-06T15:05:08.527Z,1.80
2022-09-06T15:07:49.872Z,1.63
2022-09-06T15:10:28.708Z,1.30
2022-09-06T15:13:27.459Z,1.83
2022-09-06T15:16:52.052Z,1.87
2022-09-06T15:19:45.691Z,1.60
2022-09-06T15:22:43.792Z,1.50
2022-09-06T15:25:43.059Z,1.63
2022-09-06T15:28:20.016Z,1.60
2022-09-06T15:31:16.582Z,1.50
2022-09-06T15:34:06.205Z,1.50
2022-09-06T15:37:32.429Z,1.23
2022-09-06T15:40:33.660Z,1.60
2022-09-06T15:44:32.390Z,1.43
2022-09-06T15:47:23.437Z,2.70
2022-09-06T15:49:56.054Z,2.20
2022-09-06T15:52:25.745Z,1.90
2022-09-06T15:55:23.289Z,2.03
2022-09-06T15:58:04.746Z,1.93
2022-09-06T16:00:42.241Z,1.40
2022-09-06T16:03:17.688Z,3.23
2022-09-06T16:09:38.032Z,1.70
2022-09-06T16:12:11.689Z,1.70
2022-09-06T16:14:51.216Z,1.70
2022-09-06T16:17:42.915Z,1.70
2022-09-06T16:26:53.656Z,1.90
2022-09-06T16:29:57.732Z,1.90
2022-09-06T16:32:29.148Z,1.70
2022-09-06T16:35:02.773Z,1.80
2022-09-06T16:40:47.248Z,2.10
2022-09-06T16:46:14.584Z,1.73
2022-09-06T16:48:57.962Z,1.70
2022-09-06T16:58:35.727Z,2.20
2022-09-06T17:01:13.397Z,2.37
2022-09-06T17:03:42.311Z,2.10
2022-09-06T17:06:21.652Z,2.27
2022-09-06T17:09:24.685Z,1.87
2022-09-06T17:16:13.846Z,2.00
2022-09-06T17:19:05.726Z,2.33
2022-09-06T17:27:57.786Z,1.87
2022-09-06T17:30:53.906Z,2.13
2022-09-06T17:33:28.073Z,2.50
2022-09-06T17:43:04.577Z,2.27
2022-09-06T17:48:57.166Z,2.90
2022-09-06T17:51:33.072Z,2.50
2022-09-06T18:00:48.487Z,3.17
2022-09-06T18:03:20.300Z,3.90
2022-09-06T18:05:49.223Z,4.20
2022-09-06T18:08:29.276Z,3.80
2022-09-06T18:11:16.868Z,3.47
2022-09-06T18:13:55.955Z,3.23
2022-09-06T18:16:29.644Z,2.80
2022-09-06T18:19:03.654Z,3.03
2022-09-06T18:21:35.693Z,2.87
2022-09-06T18:24:23.615Z,3.23
2022-09-06T18:27:48.422Z,3.70
2022-09-06T18:36:32.025Z,3.90
2022-09-06T18:39:20.171Z,7.03
2022-09-06T18:42:29.674Z,4.33
2022-09-06T18:45:54.236Z,3.33
2022-09-06T18:49:02.990Z,5.07
2022-09-06T18:51:38.942Z,7.63
2022-09-06T18:57:03.798Z,3.47
2022-09-06T18:59:43.733Z,3.70
2022-09-06T19:02:15.761Z,3.70
2022-09-06T19:04:56.611Z,3.30
2022-09-06T19:07:30.808Z,3.10
2022-09-06T19:09:59.439Z,3.60
2022-09-06T19:12:53.356Z,2.97
2022-09-06T19:15:55.055Z,3.60
2022-09-06T19:18:26.476Z,2.90
2022-09-06T19:21:28.773Z,2.50
2022-09-06T19:24:02.960Z,3.93
2022-09-06T19:26:41.999Z,2.23
2022-09-06T19:29:16.466Z,2.83
2022-09-06T19:31:52.450Z,2.30
2022-09-06T19:34:54.408Z,2.30
2022-09-06T19:37:57.199Z,2.30
2022-09-06T19:40:28.813Z,2.23
2022-09-06T19:43:02.767Z,2.10
2022-09-06T19:45:59.424Z,2.40
2022-09-06T19:48:35.600Z,2.40
2022-09-06T19:51:05.715Z,2.70
2022-09-06T19:53:45.413Z,2.03
2022-09-06T19:56:20.794Z,2.50
2022-09-06T19:58:57.652Z,3.17
2022-09-06T20:01:41.832Z,2.50
2022-09-06T20:07:28.210Z,2.93
2022-09-06T20:10:00.812Z,3.40
2022-09-06T20:12:34.101Z,3.67
2022-09-06T20:15:04.782Z,3.70
2022-09-06T20:17:34.907Z,3.50
2022-09-06T20:20:17.519Z,4.70
2022-09-06T20:22:47.914Z,3.70
2022-09-06T20:25:20.165Z,3.17
2022-09-06T20:27:51.022Z,2.80
2022-09-06T20:30:23.976Z,3.07
2022-09-06T20:32:52.505Z,2.83
2022-09-06T20:35:21.937Z,3.03
2022-09-06T20:37:59.742Z,2.70
2022-09-06T20:40:32.515Z,2.80
2022-09-06T20:43:02.282Z,3.00
2022-09-06T20:45:33.464Z,2.97
2022-09-06T20:48:02.978Z,3.10
2022-09-06T20:50:33.856Z,3.57
2022-09-06T20:53:02.426Z,2.70
2022-09-06T20:55:32.684Z,3.13
2022-09-06T20:58:01.153Z,3.37
2022-09-06T21:00:29.687Z,3.07
2022-09-06T21:03:04.992Z,3.50
2022-09-06T21:05:40.868Z,2.90
2022-09-06T21:08:13.004Z,3.10
2022-09-06T21:10:44.587Z,3.17
2022-09-06T21:13:13.527Z,3.10
2022-09-06T21:15:46.766Z,2.93
2022-09-06T21:18:15.384Z,2.80
2022-09-06T21:20:53.682Z,2.67
2022-09-06T21:23:29.866Z,3.40
2022-09-06T21:26:20.449Z,3.47
2022-09-06T21:29:06.421Z,2.77
2022-09-06T21:31:43.647Z,3.10
2022-09-06T21:34:17.317Z,3.80
2022-09-06T21:36:46.841Z,3.83
2022-09-06T21:39:16.985Z,3.47
2022-09-06T21:41:47.979Z,3.37
2022-09-06T21:44:21.315Z,3.10
2022-09-06T21:46:50.870Z,2.83
2022-09-06T21:49:19.487Z,3.10
2022-09-06T21:51:47.894Z,2.87
2022-09-06T21:54:27.429Z,2.97
2022-09-06T21:56:59.336Z,2.60
2022-09-06T21:59:27.781Z,3.10
2022-09-06T22:01:57.037Z,2.73
2022-09-06T22:04:26.420Z,2.60
2022-09-06T22:06:54.942Z,2.80
2022-09-06T22:09:23.425Z,2.93
2022-09-06T22:11:56.447Z,2.90
2022-09-06T22:14:27.530Z,2.90
2022-09-06T22:16:58.408Z,2.87
2022-09-06T22:19:26.913Z,2.90
2022-09-06T22:21:55.756Z,2.90
2022-09-06T22:24:24.170Z,2.97
2022-09-06T22:26:52.798Z,3.10
2022-09-06T22:29:23.412Z,2.30
2022-09-06T22:31:58.894Z,2.53
2022-09-06T22:34:29.048Z,2.63
2022-09-06T22:36:57.656Z,2.80
2022-09-06T22:39:26.089Z,2.60
2022-09-06T22:41:54.974Z,2.50
2022-09-06T22:44:27.338Z,2.70
2022-09-06T22:46:59.475Z,2.30
2022-09-06T22:52:28.807Z,2.30
2022-09-06T22:55:00.064Z,2.40
2022-09-06T22:57:30.818Z,2.80
2022-09-06T23:00:03.647Z,3.23
2022-09-06T23:02:40.897Z,2.60
2022-09-06T23:05:15.909Z,2.90
2022-09-06T23:07:50.610Z,2.80
2022-09-06T23:10:30.440Z,2.97
2022-09-06T23:13:02.313Z,2.93
2022-09-06T23:15:34.115Z,2.80
2022-09-06T23:18:04.040Z,2.60
2022-09-06T23:20:33.471Z,2.97
2022-09-06T23:23:02.363Z,2.70
2022-09-06T23:25:30.855Z,3.37
2022-09-06T23:28:00.827Z,3.10
2022-09-06T23:30:30.752Z,2.40
2022-09-06T23:33:02.687Z,2.57
2022-09-06T23:35:39.453Z,2.63
2022-09-06T23:38:07.970Z,2.83
2022-09-06T23:40:36.337Z,2.80
2022-09-06T23:43:07.159Z,2.83
2022-09-06T23:45:36.079Z,2.97
2022-09-06T23:48:05.194Z,3.03
2022-09-06T23:50:43.647Z,2.83
2022-09-06T23:53:12.688Z,3.30
2022-09-06T23:55:42.428Z,2.90
2022-09-06T23:58:16.828Z,2.73
